Sea Dolphin C — V7XL9 — position and weather

sailwx.info

Track history (hours):
 
Tides and Currents Weather Stations Pressure Air Temp Water Temp Dewpoint Dewpoint Depression Visibility Wind Speed Wind Dir Waves Ship Positions

Sea Dolphin C

Last reported at 2014-Jul-18 14:04 UTC. Time now 2014-Jul-22 19:30 UTC.
Position N 35°38' W 007°31'.

Length 181 m; draft 9.5 m.

Type: Cargo ship. MMSI: 538004513.

Date/timePositionNaut miles runAvg speedWind from/ knotsBaromVisibWave heightAir tempDewpointWater temp
2014-Jul-18 14:04N 35°38' W 007°31'1212.2
2014-Jul-18 13:07N 35°41' W 007°17'2311.8
2014-Jul-18 11:12N 35°47' W 006°50'299 9.1
2014-Jul-17 02:26N 36°34' W 000°44'5312.2
2014-Jul-16 22:04N 36°53' E 000°18'611.6
2014-Jul-16 21:33N 36°55' E 000°25'1211.7
2014-Jul-16 20:31N 36°59' E 000°40'6112.3
2014-Jul-16 15:32N 37°20' E 001°52'1312.8
2014-Jul-16 14:32N 37°23' E 002°08'3812.7
2014-Jul-16 11:33N 37°31' E 002°54'1612.6
2014-Jul-16 10:19N 37°34' E 003°14'2212.4
2014-Jul-16 08:33N 37°38' E 003°41'1312.7
2014-Jul-16 07:33N 37°41' E 003°56'1312.7
2014-Jul-16 06:33N 37°43' E 004°12'1413.0
2014-Jul-16 05:28N 37°45' E 004°30'1213.0
2014-Jul-16 04:31N 37°46' E 004°46'1212.8
2014-Jul-16 03:33N 37°46' E 005°01'1313.1
2014-Jul-16 02:33N 37°47' E 005°18'1913.0
2014-Jul-16 01:04N 37°48' E 005°42'713.0
2014-Jul-16 00:33N 37°49' E 005°51'  
2014-Jul-13 00:18N 36°28' E 023°16'1412.9
2014-Jul-12 23:12N 36°40' E 023°24'812.9
2014-Jul-12 22:33N 36°47' E 023°30'1312.8
2014-Jul-12 21:33N 36°58' E 023°39'1312.8
2014-Jul-12 20:33N 37°09' E 023°46'1212.1
2014-Jul-12 19:33N 37°19' E 023°54'1211.5
2014-Jul-12 18:33N 37°29' E 024°02'1511.9
2014-Jul-12 17:18N 37°42' E 024°11'811.4
2014-Jul-12 16:33N 37°47' E 024°20'1311.6
2014-Jul-12 15:27N 37°54' E 024°33'18012.0
2014-Jul-12 00:27N 40°24' E 026°42'1111.8
2014-Jul-11 23:33N 40°30' E 026°54'  
Track history (hours):
 
Tides and Currents Weather Stations Pressure Air Temp Water Temp Dewpoint Dewpoint Depression Visibility Wind Speed Wind Dir Waves Ship Positions

Sea Dolphin C

Last reported at 2014-Jul-18 14:04 UTC. Time now 2014-Jul-22 19:30 UTC.
Position N 35°38' W 007°31'.

Length 181 m; draft 9.5 m.

Type: Cargo ship. MMSI: 538004513.

Date/timePositionNaut miles runAvg speedWind from/ knotsBaromVisibWave heightAir tempDewpointWater temp
2014-Jul-18 14:04N 35°38' W 007°31'1212.2
2014-Jul-18 13:07N 35°41' W 007°17'2311.8
2014-Jul-18 11:12N 35°47' W 006°50'299 9.1
2014-Jul-17 02:26N 36°34' W 000°44'5312.2
2014-Jul-16 22:04N 36°53' E 000°18'611.6
2014-Jul-16 21:33N 36°55' E 000°25'1211.7
2014-Jul-16 20:31N 36°59' E 000°40'6112.3
2014-Jul-16 15:32N 37°20' E 001°52'1312.8
2014-Jul-16 14:32N 37°23' E 002°08'3812.7
2014-Jul-16 11:33N 37°31' E 002°54'1612.6
2014-Jul-16 10:19N 37°34' E 003°14'2212.4
2014-Jul-16 08:33N 37°38' E 003°41'1312.7
2014-Jul-16 07:33N 37°41' E 003°56'1312.7
2014-Jul-16 06:33N 37°43' E 004°12'1413.0
2014-Jul-16 05:28N 37°45' E 004°30'1213.0
2014-Jul-16 04:31N 37°46' E 004°46'1212.8
2014-Jul-16 03:33N 37°46' E 005°01'1313.1
2014-Jul-16 02:33N 37°47' E 005°18'1913.0
2014-Jul-16 01:04N 37°48' E 005°42'713.0
2014-Jul-16 00:33N 37°49' E 005°51'  
2014-Jul-13 00:18N 36°28' E 023°16'1412.9
2014-Jul-12 23:12N 36°40' E 023°24'812.9
2014-Jul-12 22:33N 36°47' E 023°30'1312.8
2014-Jul-12 21:33N 36°58' E 023°39'1312.8
2014-Jul-12 20:33N 37°09' E 023°46'1212.1
2014-Jul-12 19:33N 37°19' E 023°54'1211.5
2014-Jul-12 18:33N 37°29' E 024°02'1511.9
2014-Jul-12 17:18N 37°42' E 024°11'811.4
2014-Jul-12 16:33N 37°47' E 024°20'1311.6
2014-Jul-12 15:27N 37°54' E 024°33'18012.0
2014-Jul-12 00:27N 40°24' E 026°42'1111.8
2014-Jul-11 23:33N 40°30' E 026°54'  

Dump ship's entire track history